Time;durP1;ratioP1;P1;durP2;ratioP2;P2;SDS_P1;SDS_P2;PMS_P1;PMS_P2;Temp;Humidity;BMP_temperature;BMP_pressure;BME280_temperature;BME280_humidity;BME280_pressure;Samples;Min_cycle;Max_cycle;Signal;HPM_P1;HPM_P2
2021/12/04 00:01:16;;;;;;;7.28;2.90;;;;;;;3.80;97.01;99293.28;5209892;28;20032;-78
2021/12/04 00:03:46;;;;;;;5.70;2.90;;;;;;;3.88;97.38;99293.06;5190660;28;20033;-78
2021/12/04 00:06:38;;;;;;;5.75;2.75;;;;;;;3.89;97.11;99287.84;5200794;28;20032;-78
2021/12/04 00:09:10;;;;;;;5.25;2.70;;;;;;;3.96;96.75;99289.34;5202678;28;20484;-78
2021/12/04 00:11:50;;;;;;;7.25;2.88;;;;;;;3.94;96.15;99283.38;5192233;28;20025;-78
2021/12/04 00:14:21;;;;;;;5.53;3.10;;;;;;;3.92;96.38;99287.75;5192947;28;20025;-78
2021/12/04 00:16:52;;;;;;;8.07;2.92;;;;;;;3.90;96.10;99289.53;5190444;28;20041;-78
2021/12/04 00:19:24;;;;;;;5.88;3.28;;;;;;;3.91;96.36;99274.88;5189954;28;20392;-78
2021/12/04 00:21:55;;;;;;;5.40;2.75;;;;;;;4.07;96.12;99276.09;5191610;28;20526;-78
2021/12/04 00:24:26;;;;;;;5.40;3.08;;;;;;;3.94;96.49;99274.81;5192572;28;20251;-78
2021/12/04 00:26:56;;;;;;;7.00;3.45;;;;;;;4.01;96.16;99276.31;5192533;28;20029;-78
2021/12/04 00:29:27;;;;;;;5.13;3.13;;;;;;;3.97;96.24;99270.38;5200198;28;20054;-78
2021/12/04 00:32:02;;;;;;;5.00;3.15;;;;;;;4.03;96.93;99274.50;5204428;28;20042;-78
2021/12/04 00:34:36;;;;;;;;;;;;;;;3.94;96.03;99260.13;5193306;28;20050;-78
2021/12/04 00:37:30;;;;;;;5.22;2.85;;;;;;;3.85;97.75;99264.72;5191793;28;20283;-78
2021/12/04 00:51:30;;;;;;;5.47;2.85;;;;;;;4.03;97.81;99241.78;5191361;28;20061;-78
2021/12/04 00:54:00;;;;;;;7.78;2.88;;;;;;;4.07;97.59;99248.53;5192404;28;20714;-78
2021/12/04 00:56:32;;;;;;;6.05;3.42;;;;;;;3.88;98.12;99252.56;5190889;28;20026;-78
2021/12/04 00:59:03;;;;;;;6.20;3.28;;;;;;;3.98;98.45;99255.72;5201711;28;20628;-79
2021/12/04 01:01:36;;;;;;;5.93;3.17;;;;;;;3.99;98.36;99260.81;5208495;28;20656;-78
2021/12/04 01:04:11;;;;;;;5.05;3.25;;;;;;;3.87;98.91;99257.78;5201359;28;20037;-78
2021/12/04 01:06:42;;;;;;;7.32;3.60;;;;;;;3.88;99.11;99254.28;5197052;28;20503;-78
2021/12/04 01:09:14;;;;;;;4.88;2.90;;;;;;;3.94;99.36;99254.97;5202794;28;20044;-78
2021/12/04 01:11:46;;;;;;;5.97;3.30;;;;;;;3.82;99.17;99260.50;5190194;28;20029;-78
2021/12/04 01:14:20;;;;;;;6.20;3.13;;;;;;;3.79;99.44;99260.59;5192116;28;20037;-78
2021/12/04 01:16:50;;;;;;;5.78;3.00;;;;;;;3.80;100.00;99266.63;5193193;28;20064;-78
2021/12/04 01:19:21;;;;;;;7.13;3.35;;;;;;;3.76;100.00;99254.69;5193836;28;20037;-78
2021/12/04 01:21:53;;;;;;;6.15;3.28;;;;;;;3.86;99.54;99256.09;5193815;28;20646;-78
2021/12/04 01:24:24;;;;;;;5.10;3.60;;;;;;;3.89;99.43;99259.44;5193283;28;20131;-78
2021/12/04 01:26:54;;;;;;;5.47;3.03;;;;;;;3.80;100.00;99257.09;5193892;28;20026;-78
2021/12/04 01:29:24;;;;;;;8.30;3.42;;;;;;;3.84;100.00;99252.69;5199616;28;20028;-78
2021/12/04 01:31:55;;;;;;;6.05;3.35;;;;;;;3.91;99.71;99255.06;5207598;28;20511;-78
2021/12/04 01:34:25;;;;;;;7.07;3.42;;;;;;;3.88;99.64;99252.56;5195593;28;20033;-78
2021/12/04 01:36:55;;;;;;;7.72;3.70;;;;;;;3.90;100.00;99252.50;5204614;28;20037;-78
2021/12/04 01:39:26;;;;;;;7.43;3.50;;;;;;;3.96;98.36;99253.19;5204202;28;20072;-78
2021/12/04 01:41:56;;;;;;;5.13;3.17;;;;;;;3.94;99.50;99251.56;5190232;28;20049;-78
2021/12/04 01:44:26;;;;;;;8.60;3.75;;;;;;;3.92;99.74;99246.41;5202920;28;20520;-78
2021/12/04 01:46:57;;;;;;;6.38;3.42;;;;;;;3.83;100.00;99251.88;5196355;28;20030;-78
2021/12/04 01:49:27;;;;;;;7.50;3.75;;;;;;;3.90;99.73;99244.75;5197905;28;20045;-78
2021/12/04 01:51:57;;;;;;;5.65;3.55;;;;;;;3.88;99.27;99244.81;5192266;28;20510;-78
2021/12/04 01:54:28;;;;;;;6.57;3.33;;;;;;;3.87;99.68;99240.56;5193645;28;20163;-78
2021/12/04 01:56:58;;;;;;;5.43;3.03;;;;;;;3.99;99.60;99237.56;5192256;28;20029;-78
2021/12/04 01:59:29;;;;;;;6.47;3.40;;;;;;;3.87;100.00;99240.56;5201218;28;20409;-78
2021/12/04 02:02:00;;;;;;;6.10;3.78;;;;;;;3.87;100.00;99237.97;5205348;28;20030;-78
2021/12/04 02:04:30;;;;;;;5.00;3.45;;;;;;;3.82;100.00;99232.06;5194434;28;20022;-78
2021/12/04 02:07:04;;;;;;;7.10;3.20;;;;;;;3.85;100.00;99232.00;5205831;28;20609;-78
2021/12/04 02:09:37;;;;;;;8.70;3.20;;;;;;;3.87;100.00;99230.22;5202547;28;20092;-78
2021/12/04 02:12:08;;;;;;;6.93;3.50;;;;;;;3.89;100.00;99225.84;5190898;28;20480;-78
2021/12/04 02:14:41;;;;;;;7.78;3.55;;;;;;;3.84;100.00;99226.88;5191393;28;20034;-78
2021/12/04 02:17:11;;;;;;;5.82;3.33;;;;;;;3.96;100.00;99211.81;5194028;28;20048;-78
2021/12/04 02:19:45;;;;;;;6.15;3.10;;;;;;;3.88;100.00;99216.41;5194605;28;20042;-78
2021/12/04 02:22:16;;;;;;;4.68;3.25;;;;;;;3.85;100.00;99207.88;5192149;28;20025;-78
2021/12/04 02:24:46;;;;;;;5.80;3.38;;;;;;;3.83;100.00;99210.53;5193316;28;20021;-78
2021/12/04 02:27:16;;;;;;;7.22;3.78;;;;;;;3.74;100.00;99202.19;5194355;28;20032;-78
2021/12/04 02:29:48;;;;;;;5.90;3.40;;;;;;;3.93;100.00;99200.75;5204329;28;20021;-78
2021/12/04 02:32:20;;;;;;;7.45;3.30;;;;;;;3.80;100.00;99204.63;5204502;28;20037;-78
2021/12/04 02:34:50;;;;;;;5.88;3.55;;;;;;;3.78;100.00;99199.47;5191466;28;20029;-78
2021/12/04 02:37:20;;;;;;;7.13;4.00;;;;;;;3.82;100.00;99201.06;5191477;28;20041;-78
2021/12/04 02:39:58;;;;;;;8.23;4.28;;;;;;;3.84;100.00;99195.88;5194959;28;20112;-78
2021/12/04 02:42:30;;;;;;;5.53;3.58;;;;;;;3.71;100.00;99191.97;5205303;28;20538;-78
2021/12/04 02:45:05;;;;;;;6.50;3.67;;;;;;;3.76;100.00;99184.94;5206887;28;20108;-78
2021/12/04 02:47:36;;;;;;;6.13;3.53;;;;;;;3.65;100.00;99185.25;5193586;28;20032;-78
2021/12/04 02:50:10;;;;;;;5.15;3.25;;;;;;;3.69;100.00;99184.28;5190650;28;20026;-78
2021/12/04 02:52:42;;;;;;;8.00;3.40;;;;;;;3.70;100.00;99188.53;5200707;28;20062;-78
2021/12/04 02:55:14;;;;;;;5.25;3.30;;;;;;;3.65;100.00;99180.06;5201058;28;20479;-78
2021/12/04 02:57:45;;;;;;;7.53;3.55;;;;;;;3.58;100.00;99176.88;5193396;28;20036;-78
2021/12/04 03:00:21;;;;;;;5.70;3.80;;;;;;;3.50;100.00;99186.63;5206025;28;20387;-78
2021/12/04 03:02:51;;;;;;;7.53;3.75;;;;;;;3.57;100.00;99170.03;5200010;28;20025;-78
2021/12/04 03:05:31;;;;;;;8.38;3.75;;;;;;;3.58;100.00;99173.41;5192092;28;20041;-78
2021/12/04 03:08:03;;;;;;;7.05;4.00;;;;;;;3.62;100.00;99164.66;5190446;28;20034;-78
2021/12/04 03:10:34;;;;;;;6.97;3.67;;;;;;;3.62;100.00;99169.84;5193723;28;20104;-78
2021/12/04 03:13:08;;;;;;;7.95;3.63;;;;;;;3.55;100.00;99161.50;5190852;28;20563;-78
2021/12/04 03:15:41;;;;;;;6.25;3.80;;;;;;;3.68;100.00;99154.19;5190346;28;20643;-78
2021/12/04 03:18:11;;;;;;;5.68;3.40;;;;;;;3.66;100.00;99158.56;5193731;28;20029;-78
2021/12/04 03:20:44;;;;;;;6.25;3.28;;;;;;;3.63;100.00;99148.28;5190499;28;20040;-78
2021/12/04 03:23:26;;;;;;;6.53;3.10;;;;;;;3.65;100.00;99146.50;5208465;28;20037;-78
2021/12/04 03:25:59;;;;;;;4.72;3.08;;;;;;;3.67;100.00;99147.31;5197422;28;20044;-78
2021/12/04 03:28:29;;;;;;;5.28;2.90;;;;;;;3.73;100.00;99138.50;5193654;28;20097;-78
2021/12/04 03:31:10;;;;;;;4.40;2.97;;;;;;;3.72;100.00;99139.41;5210386;28;20029;-78
2021/12/04 03:42:07;;;;;;;4.60;3.03;;;;;;;3.50;100.00;99135.81;5188950;28;20037;-78
2021/12/04 03:44:38;;;;;;;6.00;3.28;;;;;;;3.53;100.00;99137.47;5198018;28;20037;-78
2021/12/04 03:47:10;;;;;;;5.13;3.03;;;;;;;3.52;100.00;99139.19;5203337;28;20080;-78
2021/12/04 03:49:40;;;;;;;6.00;2.95;;;;;;;3.57;100.00;99139.06;5192829;28;20049;-78
2021/12/04 03:52:11;;;;;;;5.57;3.10;;;;;;;3.59;100.00;99133.78;5192881;28;20083;-78
2021/12/04 03:54:42;;;;;;;4.20;2.65;;;;;;;3.69;100.00;99132.63;5189623;28;20495;-78
2021/12/04 03:57:12;;;;;;;4.47;2.78;;;;;;;3.73;100.00;99128.19;5199518;28;20021;-78
2021/12/04 03:59:47;;;;;;;4.32;2.95;;;;;;;3.70;100.00;99120.53;5208308;28;20514;-78
2021/12/04 04:02:18;;;;;;;5.65;3.45;;;;;;;3.58;100.00;99117.50;5203273;28;20100;-78
2021/12/04 04:04:48;;;;;;;6.00;2.97;;;;;;;3.62;100.00;99112.19;5191512;28;20037;-78
2021/12/04 04:07:18;;;;;;;6.03;3.67;;;;;;;3.59;100.00;99101.97;5192963;28;20029;-78
2021/12/04 04:09:49;;;;;;;4.25;3.10;;;;;;;3.64;100.00;99100.91;5190669;28;20202;-78
2021/12/04 04:12:19;;;;;;;5.53;3.53;;;;;;;3.59;100.00;99107.97;5191381;28;20056;-78
2021/12/04 04:14:49;;;;;;;7.63;3.47;;;;;;;3.63;100.00;99096.63;5189986;28;20065;-78
2021/12/04 04:17:20;;;;;;;5.88;3.20;;;;;;;3.64;100.00;99102.66;5191403;28;20079;-78
2021/12/04 04:19:50;;;;;;;6.22;3.13;;;;;;;3.72;100.00;99095.50;5206776;28;20028;-78
2021/12/04 04:22:20;;;;;;;5.95;3.40;;;;;;;3.68;100.00;99101.66;5194932;28;20105;-78
2021/12/04 04:24:50;;;;;;;6.55;3.70;;;;;;;3.70;100.00;99097.28;5191366;28;20029;-78
2021/12/04 04:27:21;;;;;;;5.78;3.30;;;;;;;3.58;100.00;99097.69;5193121;28;20037;-79
2021/12/04 04:29:51;;;;;;;5.60;3.22;;;;;;;3.58;100.00;99093.34;5205224;28;20697;-78
2021/12/04 04:32:23;;;;;;;5.95;3.40;;;;;;;3.64;100.00;99085.41;5202366;28;20092;-78
2021/12/04 04:34:55;;;;;;;5.75;3.58;;;;;;;3.66;100.00;99083.66;5192460;28;20033;-78
2021/12/04 04:37:39;;;;;;;5.43;3.15;;;;;;;3.66;100.00;99083.66;5194071;28;20026;-78
2021/12/04 05:13:21;;;;;;;6.72;2.90;;;;;;;3.66;100.00;99077.63;5196866;28;20522;-78
2021/12/04 05:21:03;;;;;;;4.32;2.72;;;;;;;3.64;100.00;99076.84;5209835;28;20029;-79
2021/12/04 05:23:37;;;;;;;3.95;2.78;;;;;;;3.58;100.00;99069.28;5196944;28;20555;-78
2021/12/04 05:26:12;;;;;;;4.63;2.67;;;;;;;3.68;100.00;99070.66;5193020;28;20030;-78
2021/12/04 05:28:43;;;;;;;4.70;2.73;;;;;;;3.71;100.00;99068.84;5197481;28;20479;-78
2021/12/04 05:31:13;;;;;;;5.15;2.70;;;;;;;3.75;100.00;99057.50;5214625;28;20020;-78
2021/12/04 05:33:44;;;;;;;6.07;2.80;;;;;;;3.73;100.00;99058.44;5196379;28;20040;-78
2021/12/04 05:36:15;;;;;;;4.35;2.60;;;;;;;3.73;100.00;99053.28;5194406;28;20033;-78
2021/12/04 05:38:46;;;;;;;4.00;2.80;;;;;;;3.69;100.00;99052.56;5195819;28;20029;-79
2021/12/04 05:41:16;;;;;;;5.30;2.70;;;;;;;3.74;100.00;99048.06;5194954;28;20621;-79
2021/12/04 05:43:48;;;;;;;4.05;2.40;;;;;;;3.65;100.00;99050.94;5195791;28;20030;-78
2021/12/04 05:46:22;;;;;;;3.60;2.60;;;;;;;3.71;100.00;99045.59;5271749;23;20551;-77
2021/12/04 05:49:03;;;;;;;3.90;2.47;;;;;;;3.69;100.00;99049.97;5230096;28;20200;-77
2021/12/04 05:56:59;;;;;;;6.00;2.60;;;;;;;3.72;100.00;99049.00;5226708;28;20452;-77
2021/12/04 05:59:30;;;;;;;4.60;2.55;;;;;;;3.81;100.00;99048.72;5229527;28;20104;-77
2021/12/04 06:02:00;;;;;;;3.47;2.40;;;;;;;3.75;100.00;99047.19;5229811;28;20040;-77
2021/12/04 06:04:31;;;;;;;4.18;2.63;;;;;;;3.67;100.00;99044.00;5227500;28;20510;-77
2021/12/04 06:07:01;;;;;;;3.58;2.45;;;;;;;3.67;100.00;99054.34;5225438;28;20401;-77
2021/12/04 06:09:32;;;;;;;3.78;2.47;;;;;;;3.60;100.00;99052.00;5226934;28;20025;-77
2021/12/04 06:12:05;;;;;;;4.50;2.30;;;;;;;3.61;100.00;99053.69;5226169;28;20029;-77
2021/12/04 06:14:35;;;;;;;4.03;2.58;;;;;;;3.57;100.00;99056.41;5225088;28;20500;-77
2021/12/04 06:17:05;;;;;;;4.65;2.88;;;;;;;3.53;100.00;99054.84;5226001;28;20032;-77
2021/12/04 06:22:37;;;;;;;3.10;2.20;;;;;;;3.57;100.00;99057.25;5224944;28;20110;-77
2021/12/04 06:25:19;;;;;;;4.95;2.80;;;;;;;3.51;100.00;99065.19;5227018;28;20024;-77
2021/12/04 06:27:50;;;;;;;3.47;2.22;;;;;;;3.51;100.00;99062.63;5229501;28;20478;-77
2021/12/04 06:30:21;;;;;;;5.10;2.75;;;;;;;3.52;100.00;99066.06;5226466;28;20050;-77
2021/12/04 06:32:53;;;;;;;3.78;2.47;;;;;;;3.53;100.00;99070.31;5228031;28;20061;-77
2021/12/04 06:35:24;;;;;;;3.97;2.60;;;;;;;3.54;100.00;99075.41;5225863;28;20025;-77
2021/12/04 06:37:54;;;;;;;4.80;2.70;;;;;;;3.51;100.00;99078.09;5225241;28;20025;-77
2021/12/04 06:40:27;;;;;;;6.07;3.22;;;;;;;3.54;100.00;99082.34;5225420;28;20021;-77
2021/12/04 06:42:59;;;;;;;4.25;2.70;;;;;;;3.57;100.00;99082.25;5227860;28;20033;-77
2021/12/04 06:45:32;;;;;;;5.78;3.17;;;;;;;3.53;100.00;99075.50;5226982;28;20099;-77
2021/12/04 06:48:10;;;;;;;4.75;2.72;;;;;;;3.57;100.00;99083.06;5229231;28;20025;-77
2021/12/04 06:55:49;;;;;;;5.10;2.70;;;;;;;3.51;100.00;99092.78;5229011;28;20510;-77
2021/12/04 06:58:21;;;;;;;5.00;3.08;;;;;;;3.51;100.00;99090.19;5228827;28;20025;-77
2021/12/04 07:00:52;;;;;;;3.90;2.60;;;;;;;3.50;100.00;99093.66;5232844;28;20037;-77
2021/12/04 07:03:22;;;;;;;7.13;3.15;;;;;;;3.50;100.00;99093.66;5229400;28;20032;-77
2021/12/04 07:05:52;;;;;;;5.30;2.35;;;;;;;3.52;100.00;99094.47;5226172;28;20029;-77
2021/12/04 07:08:23;;;;;;;4.47;2.75;;;;;;;3.48;100.00;99095.41;5225333;28;20029;-77
2021/12/04 07:10:53;;;;;;;4.25;2.50;;;;;;;3.55;100.00;99091.78;5227799;28;20029;-76
2021/12/04 07:13:24;;;;;;;4.65;2.70;;;;;;;3.57;100.00;99092.56;5228841;28;20215;-77
2021/12/04 07:16:02;;;;;;;5.10;3.00;;;;;;;3.54;100.00;99093.50;5228992;28;20029;-78
2021/12/04 07:18:33;;;;;;;4.75;2.78;;;;;;;3.57;100.00;99095.16;5227792;28;20029;-77
2021/12/04 07:21:03;;;;;;;5.40;3.05;;;;;;;3.52;100.00;99089.28;5227449;28;20048;-77
2021/12/04 07:23:35;;;;;;;4.05;2.42;;;;;;;3.59;100.00;99095.06;5226196;28;20108;-77
2021/12/04 07:26:06;;;;;;;4.32;2.85;;;;;;;3.60;100.00;99099.31;5227530;28;20752;-77
2021/12/04 07:28:37;;;;;;;5.22;2.58;;;;;;;3.62;100.00;99087.19;5224665;28;20052;-77
2021/12/04 07:31:08;;;;;;;4.07;2.50;;;;;;;3.64;100.00;99090.56;5231242;28;20608;-77
2021/12/04 07:33:39;;;;;;;4.47;2.90;;;;;;;3.63;100.00;99093.22;5230116;28;20033;-78
2021/12/04 07:36:09;;;;;;;4.60;2.80;;;;;;;3.67;100.00;99090.50;5228747;28;20565;-77
2021/12/04 07:38:39;;;;;;;4.07;2.83;;;;;;;3.65;100.00;99089.69;5225225;28;20052;-78
2021/12/04 07:41:10;;;;;;;4.07;2.60;;;;;;;3.69;100.00;99093.03;5231427;28;20381;-77
2021/12/04 07:43:42;;;;;;;4.38;2.70;;;;;;;3.65;100.00;99081.94;5229498;28;20399;-77
2021/12/04 07:46:12;;;;;;;3.67;2.45;;;;;;;3.66;100.00;99083.66;5227258;28;20067;-77
2021/12/04 07:48:43;;;;;;;3.78;2.42;;;;;;;3.73;100.00;99082.53;5227163;28;20398;-77
2021/12/04 07:51:17;;;;;;;4.65;2.53;;;;;;;3.65;100.00;99079.34;5226246;28;20071;-77
2021/12/04 07:53:47;;;;;;;4.30;2.40;;;;;;;3.69;100.00;99086.13;5225695;28;20364;-77
2021/12/04 07:56:17;;;;;;;3.80;2.35;;;;;;;3.62;100.00;99091.53;5226030;28;20032;-77
2021/12/04 07:58:48;;;;;;;3.75;2.58;;;;;;;3.71;100.00;99096.38;5225109;28;20068;-77
2021/12/04 08:01:18;;;;;;;5.13;2.60;;;;;;;3.67;100.00;99097.38;5225941;28;20021;-77
2021/12/04 08:03:48;;;;;;;4.18;2.50;;;;;;;3.73;100.00;99090.28;5225729;28;20487;-77
2021/12/04 08:06:19;;;;;;;4.88;2.28;;;;;;;3.79;100.00;99090.09;5225953;28;20033;-77
2021/12/04 08:08:51;;;;;;;4.53;2.40;;;;;;;3.85;100.00;99099.38;5225625;28;20135;-77
2021/12/04 08:11:22;;;;;;;3.70;2.55;;;;;;;3.79;100.00;99090.09;5226359;28;20948;-77
2021/12/04 08:13:52;;;;;;;4.18;2.40;;;;;;;3.75;100.00;99092.84;5226124;28;20170;-77
2021/12/04 08:16:26;;;;;;;3.20;2.15;;;;;;;3.80;100.00;99096.94;5225805;28;20029;-76
2021/12/04 08:18:56;;;;;;;4.25;2.95;;;;;;;3.81;100.00;99097.81;5225961;28;20031;-77
2021/12/04 08:21:26;;;;;;;3.80;2.67;;;;;;;3.75;100.00;99093.66;5225762;28;20017;-78
2021/12/04 08:23:56;;;;;;;4.85;2.65;;;;;;;3.81;100.00;99093.47;5226283;28;20108;-77
2021/12/04 08:26:27;;;;;;;3.83;2.47;;;;;;;3.87;100.00;99097.59;5229845;28;20032;-77
2021/12/04 08:28:57;;;;;;;4.68;2.70;;;;;;;3.86;100.00;99094.19;5229114;28;20040;-77
2021/12/04 08:31:28;;;;;;;6.43;2.88;;;;;;;3.88;100.00;99089.81;5234103;28;20020;-77
2021/12/04 08:33:58;;;;;;;5.10;3.00;;;;;;;4.08;100.00;99083.97;5228935;28;20016;-77
2021/12/04 08:36:29;;;;;;;4.60;2.85;;;;;;;4.07;100.00;99088.28;5229272;28;20040;-77
2021/12/04 08:39:07;;;;;;;4.68;3.08;;;;;;;4.13;100.00;99088.09;5229272;28;20029;-77
2021/12/04 08:41:37;;;;;;;5.10;3.30;;;;;;;4.05;100.00;99087.50;5245282;28;20035;-77
2021/12/04 08:44:08;;;;;;;5.75;3.40;;;;;;;4.12;100.00;99083.81;5227889;28;20080;-77
2021/12/04 08:46:38;;;;;;;4.82;3.17;;;;;;;4.19;100.00;99090.47;5227381;28;20028;-77
2021/12/04 08:49:09;;;;;;;4.65;3.20;;;;;;;4.18;100.00;99090.53;5227817;28;20032;-78
2021/12/04 08:51:41;;;;;;;5.00;3.58;;;;;;;4.13;100.00;99089.84;5228224;28;20036;-77
2021/12/04 08:54:13;;;;;;;6.05;3.53;;;;;;;4.21;100.00;99086.09;5228240;28;20039;-76
2021/12/04 08:56:43;;;;;;;6.03;3.67;;;;;;;4.23;100.00;99092.06;5228441;28;20085;-79
2021/12/04 08:59:13;;;;;;;6.63;3.58;;;;;;;4.29;100.00;99085.84;5228771;28;20024;-78
2021/12/04 09:01:44;;;;;;;5.20;3.65;;;;;;;4.25;100.00;99082.50;5229309;28;20025;-77
2021/12/04 09:04:23;;;;;;;5.72;3.75;;;;;;;4.41;100.00;99078.50;5227058;28;20479;-77
2021/12/04 09:06:54;;;;;;;8.52;3.50;;;;;;;4.39;100.00;99082.88;5226765;28;20044;-77
2021/12/04 09:09:27;;;;;;;6.32;3.58;;;;;;;4.43;100.00;99079.28;5225615;28;20052;-77
2021/12/04 09:12:04;;;;;;;6.30;3.72;;;;;;;4.58;100.00;99083.91;5234170;28;20025;-77
2021/12/04 09:14:36;;;;;;;5.00;3.30;;;;;;;4.63;100.00;99076.84;5247740;28;20017;-77
2021/12/04 09:17:09;;;;;;;4.72;3.10;;;;;;;4.64;100.00;99081.09;5240558;28;20566;-77
2021/12/04 09:19:39;;;;;;;5.20;3.38;;;;;;;4.69;100.00;99086.13;5219258;28;20044;-77
2021/12/04 09:22:16;;;;;;;5.97;3.20;;;;;;;4.52;100.00;99078.97;5227829;28;20029;-77
2021/12/04 09:24:49;;;;;;;4.57;3.42;;;;;;;4.64;100.00;99083.69;5227320;28;20394;-77
2021/12/04 09:27:34;;;;;;;4.15;3.05;;;;;;;4.71;100.00;99087.75;5227124;28;20166;-77
2021/12/04 10:34:01;;;;;;;4.35;2.38;;;;;;;5.21;100.00;98990.94;5224781;28;20143;-77
2021/12/04 10:36:40;;;;;;;5.35;3.00;;;;;;;5.26;100.00;98990.75;5224059;28;20096;-77
2021/12/04 10:39:11;;;;;;;3.72;2.80;;;;;;;5.19;100.00;98984.94;5224429;28;20033;-77
2021/12/04 10:41:46;;;;;;;5.38;2.88;;;;;;;5.15;100.00;98983.41;5223741;28;20033;-78
2021/12/04 10:44:23;;;;;;;3.85;2.60;;;;;;;5.18;100.00;98983.28;5223673;28;20037;-76
2021/12/04 10:47:10;;;;;;;5.88;2.88;;;;;;;5.24;100.00;98982.19;5222769;28;20031;-76
2021/12/04 10:49:59;;;;;;;6.07;2.88;;;;;;;5.50;100.00;98977.66;5224559;28;20029;-76
2021/12/04 10:55:25;;;;;;;3.92;2.40;;;;;;;5.51;100.00;98967.25;5220124;28;20075;-76
2021/12/04 11:00:59;;;;;;;4.55;2.78;;;;;;;5.19;100.00;98964.25;5222782;28;20037;-76
2021/12/04 11:03:37;;;;;;;4.03;2.60;;;;;;;5.36;100.00;98961.81;5223957;28;20029;-76
2021/12/04 11:06:39;;;;;;;5.13;2.88;;;;;;;5.24;100.00;98954.56;5223162;28;20116;-76
2021/12/04 11:23:43;;;;;;;3.75;2.40;;;;;;;5.37;100.00;98934.19;5223699;28;20031;-76
2021/12/04 11:43:04;;;;;;;3.67;2.22;;;;;;;5.71;100.00;98918.00;5221352;28;20017;-78
2021/12/04 11:46:30;;;;;;;3.40;2.15;;;;;;;5.60;100.00;98901.25;5230822;22;20048;-92
2021/12/04 11:48:41;;;;;;;2.83;1.98;;;;;;;5.50;99.65;98902.53;5212071;28;20048;-90
2021/12/04 11:51:24;;;;;;;2.72;1.98;;;;;;;5.59;99.52;98889.19;5208887;28;20051;-90
2021/12/04 11:53:55;;;;;;;3.40;2.28;;;;;;;5.44;100.00;98887.25;5192206;28;20029;-89
2021/12/04 11:56:29;;;;;;;3.33;1.95;;;;;;;5.38;100.00;98872.81;5189573;28;20060;-90
2021/12/04 11:58:59;;;;;;;3.92;2.60;;;;;;;5.44;99.77;98869.13;5192912;28;20040;-89
2021/12/04 12:01:32;;;;;;;4.13;2.50;;;;;;;5.65;97.81;98876.84;5204326;28;20045;-89
2021/12/04 12:04:13;;;;;;;3.00;2.10;;;;;;;5.61;99.11;98875.25;5199207;28;20490;-88
2021/12/04 12:06:45;;;;;;;3.08;2.15;;;;;;;5.52;99.91;98874.81;5182985;28;20045;-88
2021/12/04 12:09:26;;;;;;;3.15;2.10;;;;;;;5.58;98.72;98870.22;5181762;28;20483;-89
2021/12/04 12:12:04;;;;;;;4.18;2.20;;;;;;;5.69;96.65;98873.19;5186427;28;20041;-89
2021/12/04 12:14:40;;;;;;;3.28;2.10;;;;;;;5.61;96.98;98879.59;5189658;28;20025;-89
2021/12/04 12:17:10;;;;;;;;;;;;;;;5.46;97.90;98869.91;5183024;28;20490;-89
2021/12/04 12:19:50;;;;;;;4.72;1.77;;;;;;;5.56;97.75;98872.03;5190396;28;19958;-89
2021/12/04 12:22:35;;;;;;;2.83;1.77;;;;;;;5.51;98.94;98867.94;5203362;28;20115;-88
2021/12/04 12:34:08;;;;;;;5.55;3.40;;;;;;;5.38;100.00;98857.28;5207366;28;20071;-89
2021/12/04 12:36:38;;;;;;;5.72;3.65;;;;;;;5.41;100.00;98854.53;5185342;28;20455;-87
2021/12/04 12:39:11;;;;;;;4.85;3.25;;;;;;;5.41;100.00;98849.38;5192792;28;20402;-88
2021/12/04 12:41:46;;;;;;;5.63;3.42;;;;;;;5.38;100.00;98845.22;5207593;28;20025;-88
2021/12/04 12:44:26;;;;;;;6.00;3.75;;;;;;;5.36;100.00;98832.34;5210068;28;20063;-89
2021/12/04 12:47:05;;;;;;;6.32;3.63;;;;;;;5.38;100.00;98831.38;5191170;28;20037;-88
2021/12/04 12:49:41;;;;;;;7.00;3.95;;;;;;;5.32;100.00;98830.78;5207253;28;20038;-88
2021/12/04 12:52:25;;;;;;;7.20;4.35;;;;;;;5.34;100.00;98822.97;5186034;28;20579;-89
2021/12/04 12:55:04;;;;;;;7.10;4.93;;;;;;;5.36;100.00;98811.63;5208312;28;20041;-88
2021/12/04 12:57:39;;;;;;;6.55;4.60;;;;;;;5.35;100.00;98809.09;5206130;28;20029;-88
2021/12/04 13:11:51;;;;;;;8.85;4.72;;;;;;;5.39;100.00;98790.78;5208312;28;20098;-88
2021/12/04 13:14:29;;;;;;;6.97;4.63;;;;;;;5.42;100.00;98780.28;5210167;28;20056;-87
2021/12/04 13:17:06;;;;;;;8.48;4.55;;;;;;;5.30;100.00;98777.41;5210980;28;20029;-89
2021/12/04 13:19:39;;;;;;;7.35;4.47;;;;;;;5.52;100.00;98773.78;5191895;28;20132;-89
2021/12/04 13:22:17;;;;;;;7.20;4.65;;;;;;;5.50;100.00;98773.00;5205463;28;20029;-89
2021/12/04 13:24:49;;;;;;;8.55;4.88;;;;;;;5.39;100.00;98765.72;5212284;28;20571;-88
2021/12/04 13:30:01;;;;;;;7.93;4.28;;;;;;;5.37;100.00;98777.06;5206593;28;20032;-89
2021/12/04 13:32:40;;;;;;;7.15;4.22;;;;;;;5.38;100.00;98776.16;5193364;28;20021;-88
2021/12/04 13:35:20;;;;;;;7.35;4.60;;;;;;;5.50;100.00;98762.66;5188969;28;20041;-89
2021/12/04 13:37:58;;;;;;;4.78;3.42;;;;;;;5.48;100.00;98765.34;5191852;28;20029;-89
2021/12/04 13:40:28;;;;;;;5.97;3.83;;;;;;;5.34;100.00;98750.47;5210885;28;20330;-90
2021/12/04 13:42:59;;;;;;;6.40;3.88;;;;;;;5.21;100.00;98744.97;5211281;28;20071;-89
2021/12/04 13:45:29;;;;;;;5.03;3.58;;;;;;;5.31;100.00;98743.66;5190707;28;20039;-88
2021/12/04 13:48:00;;;;;;;5.72;3.47;;;;;;;5.20;100.00;98732.94;5194955;28;20040;-88
2021/12/04 13:51:27;;;;;;;4.60;3.25;;;;;;;5.13;100.00;98738.44;5186813;28;20411;-89
2021/12/04 13:53:58;;;;;;;5.45;3.00;;;;;;;5.20;100.00;98735.53;5120953;28;20038;-89
2021/12/04 13:56:30;;;;;;;6.22;3.08;;;;;;;5.13;100.00;98733.28;5136394;28;20050;-88
2021/12/04 13:59:05;;;;;;;3.95;2.50;;;;;;;5.16;100.00;98731.38;5180814;28;20071;-88
2021/12/04 14:01:44;;;;;;;3.55;2.30;;;;;;;5.19;100.00;98725.22;5204072;28;20032;-89
2021/12/04 14:04:19;;;;;;;5.05;2.30;;;;;;;5.25;100.00;98728.41;5206153;28;20230;-88
2021/12/04 14:07:03;;;;;;;3.13;2.25;;;;;;;5.17;100.00;98716.69;5193521;28;20611;-90
2021/12/04 14:09:38;;;;;;;2.53;1.83;;;;;;;5.03;100.00;98709.53;5195311;28;20041;-90
2021/12/04 14:12:08;;;;;;;3.70;2.13;;;;;;;5.11;100.00;98712.63;5205285;28;20048;-88
2021/12/04 14:14:39;;;;;;;3.63;2.30;;;;;;;5.11;100.00;98712.63;5195618;28;20044;-89
2021/12/04 14:17:14;;;;;;;3.55;2.50;;;;;;;5.18;100.00;98715.78;5207765;28;20032;-89
2021/12/04 14:19:45;;;;;;;3.67;2.40;;;;;;;5.10;100.00;98708.34;5192601;28;20107;-88
2021/12/04 14:22:19;;;;;;;4.07;2.15;;;;;;;5.12;100.00;98708.31;5193195;28;20087;-88
2021/12/04 14:24:57;;;;;;;3.67;2.13;;;;;;;5.01;100.00;98719.09;5213187;28;20017;-88
2021/12/04 14:27:34;;;;;;;3.97;2.40;;;;;;;4.99;100.00;98718.31;5188460;28;20080;-86
2021/12/04 14:30:16;;;;;;;3.20;2.00;;;;;;;4.92;100.00;98716.06;5210973;28;20120;-88
2021/12/04 14:32:53;;;;;;;4.15;2.70;;;;;;;4.91;100.00;98714.38;5203365;28;20521;-87
2021/12/04 14:35:31;;;;;;;7.28;3.83;;;;;;;4.83;100.00;98700.94;5191880;28;20119;-88
2021/12/04 14:38:05;;;;;;;4.13;2.47;;;;;;;4.76;100.00;98721.06;5211380;28;20090;-88
2021/12/04 14:40:48;;;;;;;4.30;2.45;;;;;;;4.83;100.00;98712.09;5191709;28;20048;-88
2021/12/04 14:43:22;;;;;;;3.35;2.50;;;;;;;4.77;100.00;98707.22;5209022;28;20041;-89
2021/12/04 14:45:56;;;;;;;4.03;2.55;;;;;;;4.71;100.00;98715.25;5192994;28;20033;-87
2021/12/04 14:48:35;;;;;;;4.80;2.92;;;;;;;4.69;100.00;98711.88;5206232;28;20040;-88
2021/12/04 14:51:13;;;;;;;4.72;2.90;;;;;;;4.71;100.00;98711.78;5202973;28;20052;-88
2021/12/04 14:53:50;;;;;;;4.78;2.83;;;;;;;4.71;100.00;98704.88;5200289;28;20049;-88
2021/12/04 14:56:24;;;;;;;5.65;2.88;;;;;;;4.72;100.00;98705.72;5185554;28;20268;-87
2021/12/04 14:58:55;;;;;;;5.78;2.63;;;;;;;4.64;100.00;98707.78;5207719;28;20517;-88
2021/12/04 15:01:32;;;;;;;4.82;2.88;;;;;;;4.73;100.00;98699.63;5205436;28;20067;-89
2021/12/04 15:04:04;;;;;;;4.15;2.80;;;;;;;4.75;100.00;98698.66;5201428;28;20120;-87
2021/12/04 15:06:37;;;;;;;5.60;2.88;;;;;;;4.70;100.00;98690.28;5203743;28;20504;-87
2021/12/04 15:09:14;;;;;;;3.78;2.45;;;;;;;4.72;100.00;98695.38;5186009;28;20043;-87
2021/12/04 15:11:48;;;;;;;5.50;3.00;;;;;;;4.66;100.00;98704.22;5185321;28;20022;-88
2021/12/04 15:14:31;;;;;;;4.50;2.80;;;;;;;4.54;100.00;98707.34;5202250;28;20044;-87
2021/12/04 15:17:11;;;;;;;4.63;2.60;;;;;;;4.59;100.00;98715.75;5185700;28;20032;-88
2021/12/04 15:19:43;;;;;;;3.45;2.22;;;;;;;4.59;100.00;98718.31;5191620;28;20032;-88